Time;durP1;ratioP1;P1;durP2;ratioP2;P2;SDS_P1;SDS_P2;PMS_P1;PMS_P2;Temp;Humidity;BMP_temperature;BMP_pressure;BME280_temperature;BME280_humidity;BME280_pressure;Samples;Min_cycle;Max_cycle;Signal;HPM_P1;HPM_P2
2023/09/15 00:01:43;;;;;;;2.75;1.30;;;;;;;20.84;70.83;99916.22;4475036;32;33464;-78
2023/09/15 00:04:12;;;;;;;3.25;1.33;;;;;;;20.74;71.28;99912.34;4474466;32;33740;-77
2023/09/15 00:06:46;;;;;;;3.72;1.98;;;;;;;20.73;71.45;99914.12;4471991;32;33391;-79
2023/09/15 00:09:18;;;;;;;1.58;0.93;;;;;;;20.84;70.39;99909.13;4470848;32;34719;-78
2023/09/15 00:11:50;;;;;;;3.80;1.50;;;;;;;20.69;70.47;99917.00;4464534;32;33782;-78
2023/09/15 00:14:19;;;;;;;3.25;1.55;;;;;;;20.65;70.77;99916.31;4463535;32;34497;-78
2023/09/15 00:16:48;;;;;;;2.83;1.30;;;;;;;20.75;69.67;99914.88;4467120;32;33141;-78
2023/09/15 00:19:18;;;;;;;3.00;1.58;;;;;;;20.70;69.78;99916.91;4479098;32;34267;-78
2023/09/15 00:21:48;;;;;;;2.90;1.55;;;;;;;20.48;70.74;99922.41;4468383;32;34533;-77
2023/09/15 00:24:17;;;;;;;5.30;1.70;;;;;;;20.64;70.13;99919.88;4469524;32;33611;-78
2023/09/15 00:26:46;;;;;;;3.55;1.92;;;;;;;20.58;69.90;99926.28;4466740;32;34183;-78
2023/09/15 00:29:15;;;;;;;3.00;1.80;;;;;;;20.52;70.25;99931.87;4468784;32;34040;-78
2023/09/15 00:31:43;;;;;;;2.65;1.45;;;;;;;20.57;70.06;99932.50;4468622;32;33983;-78
2023/09/15 00:34:14;;;;;;;2.33;1.58;;;;;;;20.71;69.62;99936.22;4460041;32;34708;-77
2023/09/15 00:36:45;;;;;;;2.12;1.37;;;;;;;20.38;70.66;99943.09;4463125;32;33940;-78
2023/09/15 00:39:15;;;;;;;3.37;1.77;;;;;;;20.48;69.60;99943.47;4468921;32;33059;-78
2023/09/15 00:41:44;;;;;;;2.40;1.33;;;;;;;20.36;70.43;99946.72;4475634;32;33271;-78
2023/09/15 00:44:13;;;;;;;3.90;1.42;;;;;;;20.36;69.69;99946.72;4468277;32;34502;-78
2023/09/15 00:46:42;;;;;;;2.62;1.60;;;;;;;20.61;67.51;99944.62;4463999;32;33810;-77
2023/09/15 00:49:11;;;;;;;3.65;1.65;;;;;;;20.38;68.48;99947.50;4464449;32;33637;-78
2023/09/15 00:51:41;;;;;;;3.78;2.03;;;;;;;20.44;68.30;99942.78;4466477;32;34553;-78
2023/09/15 00:54:10;;;;;;;3.35;1.55;;;;;;;20.55;67.86;99944.03;4466832;32;34514;-76
2023/09/15 00:56:40;;;;;;;2.65;1.55;;;;;;;20.54;68.04;99937.03;4472878;32;35274;-77
2023/09/15 00:59:10;;;;;;;3.47;1.73;;;;;;;20.54;68.28;99937.91;4462286;32;32960;-78
2023/09/15 01:01:40;;;;;;;2.37;1.30;;;;;;;20.42;68.79;99944.66;4477124;32;33741;-77
2023/09/15 01:04:10;;;;;;;;;;;;;;;20.46;68.92;99940.06;4478345;32;33954;-78
2023/09/15 01:06:39;;;;;;;2.50;1.60;;;;;;;20.54;68.41;99943.19;4475287;32;33112;-78
2023/09/15 01:09:11;;;;;;;3.35;1.98;;;;;;;20.46;68.79;99940.94;4466901;32;33678;-77
2023/09/15 01:11:41;;;;;;;2.20;1.25;;;;;;;20.33;69.31;99945.09;4473862;32;33703;-78
2023/09/15 01:14:10;;;;;;;3.20;1.37;;;;;;;20.66;67.47;99936.47;4477490;32;36010;-78
2023/09/15 01:16:41;;;;;;;3.53;1.92;;;;;;;20.45;68.45;99938.38;4470677;32;33166;-79
2023/09/15 01:19:15;;;;;;;;;;;;;;;20.27;68.81;99947.19;4471433;32;34694;-77
2023/09/15 01:22:10;;;;;;;2.53;1.37;;;;;;;20.38;68.55;99932.53;4473672;32;33946;-78
2023/09/15 01:24:57;;;;;;;4.65;1.95;;;;;;;20.40;68.21;99938.59;4472377;32;33666;-78
2023/09/15 01:27:45;;;;;;;3.10;1.60;;;;;;;20.32;67.49;99942.53;4476615;32;33373;-79
2023/09/15 01:30:16;;;;;;;2.25;1.40;;;;;;;20.25;67.95;99942.84;4465808;32;34229;-77
2023/09/15 01:32:46;;;;;;;3.30;1.73;;;;;;;20.27;68.15;99937.47;4461407;32;34461;-78
2023/09/15 01:35:15;;;;;;;4.32;2.28;;;;;;;20.32;67.63;99939.91;4459507;32;34064;-77
2023/09/15 01:37:44;;;;;;;4.37;2.58;;;;;;;20.28;68.01;99944.47;4469528;32;33289;-77
2023/09/15 01:40:13;;;;;;;4.53;2.00;;;;;;;20.32;67.68;99938.13;4466633;32;33512;-78
2023/09/15 01:42:44;;;;;;;4.55;1.87;;;;;;;20.23;68.00;99941.22;4473745;32;34961;-78
2023/09/15 01:45:12;;;;;;;4.43;1.95;;;;;;;20.21;67.77;99946.56;4467572;32;33229;-78
2023/09/15 01:47:43;;;;;;;4.72;1.92;;;;;;;19.96;68.27;99943.41;4473403;32;33905;-78
2023/09/15 01:50:12;;;;;;;3.22;1.60;;;;;;;20.04;67.75;99944.72;4467487;32;33196;-79
2023/09/15 01:52:41;;;;;;;3.62;1.73;;;;;;;20.04;67.55;99954.41;4471801;32;33745;-78
2023/09/15 01:55:10;;;;;;;1.90;1.37;;;;;;;19.94;67.70;99950.53;4467448;32;34700;-78
2023/09/15 01:57:39;;;;;;;3.85;1.80;;;;;;;19.67;68.76;99961.41;4473246;32;33216;-77
2023/09/15 02:00:10;;;;;;;3.03;1.83;;;;;;;19.89;67.65;99965.69;4463079;32;33395;-77
2023/09/15 02:02:39;;;;;;;3.53;1.98;;;;;;;19.78;67.70;99964.41;4479921;32;33795;-78
2023/09/15 02:05:19;;;;;;;4.15;1.67;;;;;;;19.66;68.25;99959.69;4472224;32;34417;-78
2023/09/15 02:07:48;;;;;;;4.10;2.12;;;;;;;19.65;68.17;99965.03;4468594;32;33251;-78
2023/09/15 02:10:17;;;;;;;4.07;1.62;;;;;;;19.66;68.13;99962.31;4470221;32;34245;-78
2023/09/15 02:12:45;;;;;;;3.90;1.62;;;;;;;19.63;68.44;99967.72;4462267;32;33510;-78
2023/09/15 02:15:14;;;;;;;3.90;1.80;;;;;;;19.75;67.81;99969.81;4475893;32;34618;-76
2023/09/15 02:17:43;;;;;;;3.37;1.83;;;;;;;19.59;68.41;99968.78;4471829;32;34055;-78
2023/09/15 02:20:18;;;;;;;3.65;2.08;;;;;;;19.56;68.93;99959.25;4465969;32;33835;-78
2023/09/15 02:22:47;;;;;;;3.45;1.83;;;;;;;19.60;68.92;99960.81;4463462;32;33873;-78
2023/09/15 02:25:16;;;;;;;2.90;1.60;;;;;;;19.51;69.14;99961.25;4466596;32;33696;-78
2023/09/15 02:27:45;;;;;;;2.67;1.45;;;;;;;19.46;69.55;99960.59;4466693;32;34291;-78
2023/09/15 02:30:14;;;;;;;3.37;1.58;;;;;;;19.64;69.23;99960.69;4464753;32;34694;-79
2023/09/15 02:32:44;;;;;;;3.50;1.77;;;;;;;19.71;69.00;99965.59;4474528;32;34610;-77
2023/09/15 02:35:15;;;;;;;1.52;1.10;;;;;;;19.61;69.31;99957.25;4462214;32;34789;-77
2023/09/15 02:37:44;;;;;;;3.70;2.22;;;;;;;19.61;69.47;99961.66;4477879;32;33598;-78
2023/09/15 02:40:14;;;;;;;4.62;2.10;;;;;;;19.73;68.74;99955.87;4465806;32;33418;-79
2023/09/15 02:42:43;;;;;;;3.85;2.00;;;;;;;19.71;68.72;99952.44;4465449;32;33588;-78
2023/09/15 02:45:12;;;;;;;5.00;2.30;;;;;;;19.73;68.62;99958.50;4470490;32;34357;-79
2023/09/15 02:47:41;;;;;;;5.37;1.90;;;;;;;19.34;69.83;99951.47;4477674;32;33350;-77
2023/09/15 02:50:10;;;;;;;3.53;1.90;;;;;;;19.66;68.81;99949.16;4470327;32;33481;-78
2023/09/15 02:52:43;;;;;;;3.92;1.83;;;;;;;19.54;69.23;99947.09;4476435;32;33656;-77
2023/09/15 02:55:12;;;;;;;3.78;1.95;;;;;;;19.58;69.04;99949.50;4462240;32;34851;-77
2023/09/15 02:57:41;;;;;;;3.58;1.90;;;;;;;19.10;70.69;99955.22;4472209;32;33684;-78
2023/09/15 03:00:13;;;;;;;2.87;1.60;;;;;;;19.45;69.91;99958.03;4473919;32;34589;-78
2023/09/15 03:02:43;;;;;;;4.03;2.17;;;;;;;19.46;69.31;99957.97;4471623;32;33981;-78
2023/09/15 03:05:14;;;;;;;3.05;1.67;;;;;;;19.47;68.94;99958.81;4463806;32;34578;-77
2023/09/15 03:07:44;;;;;;;4.25;2.12;;;;;;;19.64;67.71;99955.41;4459702;32;33618;-77
2023/09/15 03:10:13;;;;;;;4.17;2.13;;;;;;;19.46;68.42;99963.22;4476558;32;33843;-78
2023/09/15 03:12:42;;;;;;;5.37;2.40;;;;;;;19.58;67.76;99962.66;4462018;32;33571;-78
2023/09/15 03:15:11;;;;;;;3.53;2.12;;;;;;;19.46;68.29;99957.13;4473059;32;34559;-78
2023/09/15 03:17:40;;;;;;;3.17;2.00;;;;;;;19.43;68.20;99957.28;4463734;32;33898;-79
2023/09/15 03:20:13;;;;;;;3.42;1.85;;;;;;;19.18;69.45;99953.97;4467453;32;33943;-77
2023/09/15 03:22:44;;;;;;;2.95;1.95;;;;;;;19.10;69.86;99956.06;4478528;32;34802;-78
2023/09/15 03:25:14;;;;;;;3.97;2.20;;;;;;;19.02;70.53;99963.44;4467827;32;33286;-79
2023/09/15 03:27:43;;;;;;;2.75;2.25;;;;;;;19.15;69.93;99961.97;4476138;32;33723;-77
2023/09/15 03:30:12;;;;;;;4.03;2.10;;;;;;;19.21;69.80;99947.72;4467430;32;34570;-78
2023/09/15 03:32:41;;;;;;;3.22;1.73;;;;;;;19.32;68.99;99957.75;4481727;32;33677;-78
2023/09/15 03:35:10;;;;;;;3.72;1.80;;;;;;;19.32;68.45;99955.09;4476415;32;33620;-78
2023/09/15 03:37:39;;;;;;;3.37;1.80;;;;;;;19.39;68.19;99962.66;4476632;32;33522;-78
2023/09/15 03:40:11;;;;;;;4.07;1.98;;;;;;;19.26;68.48;99965.91;4476019;32;33894;-79
2023/09/15 03:42:40;;;;;;;2.90;1.55;;;;;;;19.30;68.30;99970.94;4461258;32;33681;-77
2023/09/15 03:45:10;;;;;;;4.72;2.22;;;;;;;19.14;68.80;99964.69;4472639;32;34210;-79
2023/09/15 03:47:40;;;;;;;4.97;2.67;;;;;;;19.25;68.57;99961.56;4474742;32;33386;-78
2023/09/15 03:50:09;;;;;;;3.70;1.83;;;;;;;19.10;69.08;99963.09;4476293;32;34220;-78
2023/09/15 03:52:38;;;;;;;3.03;1.67;;;;;;;19.03;69.73;99962.50;4476363;32;34414;-79
2023/09/15 03:55:07;;;;;;;4.43;1.90;;;;;;;19.11;69.15;99968.31;4482123;32;34035;-79
2023/09/15 03:57:37;;;;;;;4.35;1.92;;;;;;;19.16;69.11;99965.44;4476156;32;34293;-78
2023/09/15 04:00:11;;;;;;;3.30;1.70;;;;;;;19.15;69.15;99971.63;4477515;32;34935;-79
2023/09/15 04:02:42;;;;;;;3.33;1.70;;;;;;;19.05;69.42;99968.56;4471378;32;34519;-78
2023/09/15 04:05:11;;;;;;;3.87;1.55;;;;;;;18.99;69.56;99966.19;4469306;32;34835;-79
2023/09/15 04:07:40;;;;;;;3.42;1.70;;;;;;;19.12;69.35;99970.00;4477324;32;34338;-78
2023/09/15 04:10:09;;;;;;;2.33;1.67;;;;;;;19.05;69.19;99976.44;4462576;32;34587;-78
2023/09/15 04:12:42;;;;;;;3.33;1.83;;;;;;;19.03;69.54;99977.44;4470291;32;35244;-78
2023/09/15 04:15:11;;;;;;;2.95;1.62;;;;;;;18.79;70.28;99979.34;4466216;32;34602;-77
2023/09/15 04:17:41;;;;;;;3.97;2.20;;;;;;;18.95;69.72;99976.00;4471629;32;34310;-78
2023/09/15 04:20:10;;;;;;;3.85;1.83;;;;;;;18.97;70.00;99978.56;4460380;32;33547;-78
2023/09/15 04:22:40;;;;;;;3.28;1.70;;;;;;;19.16;69.18;99983.84;4469946;32;33790;-78
2023/09/15 04:25:11;;;;;;;4.12;2.17;;;;;;;19.01;69.82;99984.53;4459487;32;33936;-78
2023/09/15 04:27:42;;;;;;;5.57;2.22;;;;;;;18.93;70.24;99982.25;4463715;32;32736;-77
2023/09/15 04:30:14;;;;;;;4.68;2.42;;;;;;;18.97;69.71;99983.81;4464858;32;33656;-77
2023/09/15 04:32:43;;;;;;;3.17;1.58;;;;;;;19.00;69.54;99986.31;4465447;32;33778;-77
2023/09/15 04:35:12;;;;;;;3.62;1.87;;;;;;;18.82;70.37;99977.44;4459545;32;34145;-77
2023/09/15 04:37:42;;;;;;;3.30;1.75;;;;;;;19.00;69.79;99977.56;4459376;32;33717;-79
2023/09/15 04:40:11;;;;;;;4.18;2.12;;;;;;;18.96;70.17;99990.00;4466895;32;33586;-77
2023/09/15 04:42:42;;;;;;;2.85;1.83;;;;;;;19.08;69.99;99988.59;4465555;32;34347;-77
2023/09/15 04:45:11;;;;;;;4.87;2.10;;;;;;;18.97;70.31;99991.72;4465154;32;34744;-78
2023/09/15 04:47:41;;;;;;;3.30;1.92;;;;;;;18.97;70.65;100000.44;4473308;32;34300;-78
2023/09/15 04:50:10;;;;;;;5.25;2.33;;;;;;;19.23;69.61;99987.94;4461888;32;35754;-77
2023/09/15 04:52:39;;;;;;;4.85;2.47;;;;;;;19.26;69.53;99990.44;4468970;32;33631;-77
2023/09/15 04:55:08;;;;;;;3.50;1.70;;;;;;;19.14;69.86;99994.47;4464683;32;33661;-77
2023/09/15 04:57:38;;;;;;;3.92;2.08;;;;;;;19.10;70.37;99992.03;4467422;32;32110;-78
2023/09/15 05:00:13;;;;;;;4.20;2.10;;;;;;;19.24;69.97;99992.28;4465287;32;33824;-78
2023/09/15 05:02:44;;;;;;;2.03;1.30;;;;;;;19.08;71.17;99997.34;4466156;32;34790;-78
2023/09/15 05:05:15;;;;;;;4.20;2.17;;;;;;;19.27;70.35;99991.28;4465625;32;34263;-77
2023/09/15 05:07:43;;;;;;;3.85;2.12;;;;;;;19.30;69.59;99991.16;4468243;32;33605;-78
2023/09/15 05:10:12;;;;;;;2.95;1.30;;;;;;;19.49;69.32;99991.19;4463211;32;33543;-79
2023/09/15 05:12:42;;;;;;;4.70;1.85;;;;;;;19.45;69.71;99985.22;4463345;32;33771;-79
2023/09/15 05:15:12;;;;;;;3.10;1.80;;;;;;;19.57;68.93;99994.31;4466979;32;34022;-78
2023/09/15 05:17:41;;;;;;;2.97;2.15;;;;;;;19.53;68.90;99985.72;4467926;32;33898;-76
2023/09/15 05:20:11;;;;;;;3.00;1.77;;;;;;;19.65;68.80;99991.34;4464667;32;34603;-78
2023/09/15 05:22:40;;;;;;;3.03;1.40;;;;;;;19.65;69.04;100000.09;4475144;32;33563;-78
2023/09/15 05:25:10;;;;;;;4.28;1.70;;;;;;;19.73;69.08;100002.41;4482481;32;33212;-78
2023/09/15 05:27:39;;;;;;;3.62;2.25;;;;;;;19.98;68.72;100000.34;4477416;32;34116;-79
2023/09/15 05:30:09;;;;;;;4.82;2.60;;;;;;;19.99;68.37;99994.13;4469704;32;34221;-77
2023/09/15 05:32:43;;;;;;;2.53;1.37;;;;;;;20.03;68.81;100000.97;4474618;32;33824;-77
2023/09/15 05:35:12;;;;;;;2.50;1.50;;;;;;;20.13;68.76;100001.41;4477156;32;33732;-78
2023/09/15 05:37:41;;;;;;;3.97;2.00;;;;;;;20.22;68.56;100003.59;4474312;32;33322;-78
2023/09/15 05:40:11;;;;;;;3.10;1.65;;;;;;;20.27;68.63;100003.34;4469018;32;33687;-78
2023/09/15 05:42:40;;;;;;;4.50;1.92;;;;;;;20.39;68.18;99999.25;4466011;32;34290;-77
2023/09/15 05:45:10;;;;;;;3.40;1.87;;;;;;;20.49;67.92;100002.31;4468493;32;34330;-79
2023/09/15 05:47:39;;;;;;;3.67;2.10;;;;;;;20.57;66.47;100002.84;4468545;32;32772;-79
2023/09/15 05:50:10;;;;;;;3.85;1.95;;;;;;;20.35;67.73;100006.47;4466264;32;33387;-78
2023/09/15 05:52:38;;;;;;;;;;;;;;;20.42;67.42;100007.03;4469354;32;33766;-77
2023/09/15 05:55:07;;;;;;;4.32;2.00;;;;;;;20.55;67.51;100007.28;4465328;32;34114;-77
2023/09/15 05:57:36;;;;;;;2.80;1.50;;;;;;;20.49;67.90;100002.31;4475508;32;33440;-78
2023/09/15 06:00:07;;;;;;;3.22;1.50;;;;;;;20.73;66.88;100010.81;4483001;32;33657;-78
2023/09/15 06:02:39;;;;;;;3.65;1.80;;;;;;;20.61;67.31;100001.72;4477276;32;33780;-77
2023/09/15 06:05:09;;;;;;;3.12;1.83;;;;;;;20.58;67.29;100009.78;4463993;32;34063;-77
2023/09/15 06:07:38;;;;;;;3.08;1.65;;;;;;;20.48;67.68;100016.44;4459399;32;33267;-78
2023/09/15 06:10:08;;;;;;;4.25;1.90;;;;;;;20.63;66.20;100013.94;4465972;32;33874;-78
2023/09/15 06:12:37;;;;;;;3.58;1.85;;;;;;;20.72;65.79;100019.66;4463746;32;33691;-78
2023/09/15 06:15:06;;;;;;;2.85;1.58;;;;;;;20.68;65.93;100013.69;4466849;32;34666;-77
2023/09/15 06:17:35;;;;;;;2.15;1.33;;;;;;;20.52;66.22;100018.84;4476943;32;33363;-78
2023/09/15 06:20:05;;;;;;;2.70;1.60;;;;;;;20.50;66.55;100027.75;4477574;32;34574;-78
2023/09/15 06:22:35;;;;;;;3.70;1.20;;;;;;;20.20;67.52;100026.53;4482586;32;34095;-77
2023/09/15 06:25:05;;;;;;;3.40;1.58;;;;;;;20.27;66.97;100032.31;4477094;32;33164;-78
2023/09/15 06:27:34;;;;;;;4.55;1.52;;;;;;;20.39;66.62;100034.41;4476764;32;33573;-78
2023/09/15 06:30:04;;;;;;;2.75;1.33;;;;;;;20.45;66.58;100033.25;4475862;32;33491;-78
2023/09/15 06:32:33;;;;;;;2.60;1.42;;;;;;;20.25;67.83;100035.06;4474335;32;34011;-78
2023/09/15 06:35:02;;;;;;;4.37;2.05;;;;;;;20.57;66.71;100031.81;4467297;32;33921;-77
2023/09/15 06:37:31;;;;;;;3.37;2.15;;;;;;;20.40;65.71;100038.72;4466317;32;33805;-78
2023/09/15 06:40:01;;;;;;;3.55;1.73;;;;;;;20.43;66.37;100041.22;4474416;32;34511;-79
2023/09/15 06:42:30;;;;;;;2.97;1.60;;;;;;;20.29;66.24;100038.38;4475212;32;33662;-78
2023/09/15 06:44:59;;;;;;;3.25;1.77;;;;;;;20.24;67.11;100045.66;4470272;32;33112;-78
2023/09/15 06:47:28;;;;;;;3.83;1.85;;;;;;;20.60;65.88;100035.16;4460914;32;33723;-79
2023/09/15 06:49:57;;;;;;;3.25;1.37;;;;;;;20.77;64.84;100039.59;4459999;32;33379;-79
2023/09/15 06:52:26;;;;;;;3.00;1.67;;;;;;;20.90;63.91;100031.94;4459032;32;34960;-78
2023/09/15 06:54:59;;;;;;;3.62;1.52;;;;;;;20.94;64.02;100027.34;4474603;32;33682;-78
2023/09/15 06:57:29;;;;;;;3.55;1.70;;;;;;;20.65;64.77;100032.28;4474909;32;34141;-79
2023/09/15 06:59:58;;;;;;;3.15;1.83;;;;;;;20.55;65.41;100026.63;4476011;32;34366;-78
2023/09/15 07:02:27;;;;;;;3.75;1.98;;;;;;;20.92;64.80;100037.13;4469390;32;33649;-79
2023/09/15 07:04:56;;;;;;;3.33;1.52;;;;;;;20.97;63.93;100030.69;4465531;32;34146;-78
2023/09/15 07:07:25;;;;;;;3.67;1.83;;;;;;;21.13;63.51;100030.75;4460822;32;34153;-79
2023/09/15 07:09:54;;;;;;;4.10;1.98;;;;;;;21.23;63.20;100028.50;4461841;32;34529;-78
2023/09/15 07:12:23;;;;;;;3.62;2.17;;;;;;;21.30;63.41;100036.00;4466606;32;33426;-79
2023/09/15 07:14:53;;;;;;;3.95;1.60;;;;;;;21.72;61.85;100033.84;4465831;32;34368;-78
2023/09/15 07:17:22;;;;;;;2.00;1.33;;;;;;;21.62;61.56;100036.13;4476241;32;34441;-78
2023/09/15 07:19:51;;;;;;;2.53;1.30;;;;;;;21.56;62.65;100033.81;4468053;32;34810;-79
2023/09/15 07:22:20;;;;;;;3.75;1.33;;;;;;;21.47;63.67;100037.78;4468577;32;34425;-78
2023/09/15 07:24:49;;;;;;;2.60;1.40;;;;;;;21.58;63.32;100034.59;4466189;32;33861;-79
2023/09/15 07:27:18;;;;;;;2.37;0.88;;;;;;;21.80;62.60;100039.56;4473703;32;34196;-77
2023/09/15 07:29:47;;;;;;;2.47;1.35;;;;;;;21.98;60.32;100035.06;4466108;32;33661;-78
2023/09/15 07:32:17;;;;;;;2.28;1.25;;;;;;;21.98;61.25;100036.84;4467536;32;34738;-79
2023/09/15 07:34:46;;;;;;;1.35;1.02;;;;;;;22.18;59.73;100041.91;4466298;32;33179;-78
2023/09/15 07:37:15;;;;;;;2.42;1.30;;;;;;;22.25;58.52;100039.78;4473038;32;34159;-78
2023/09/15 07:39:46;;;;;;;2.87;1.30;;;;;;;22.02;58.92;100039.25;4474462;32;33620;-79
2023/09/15 07:42:15;;;;;;;1.70;1.00;;;;;;;22.02;58.63;100036.59;4454169;32;202678;-79
2023/09/15 07:44:45;;;;;;;1.98;1.02;;;;;;;21.82;59.97;100042.12;4467505;32;34577;-79
2023/09/15 07:47:14;;;;;;;1.58;1.20;;;;;;;22.08;58.89;100038.06;4476733;32;32743;-78
2023/09/15 07:49:44;;;;;;;2.17;0.93;;;;;;;22.63;57.30;100029.69;4476741;32;33877;-78
2023/09/15 07:52:13;;;;;;;3.00;1.93;;;;;;;22.35;58.33;100039.19;4472080;32;33279;-78
2023/09/15 07:54:45;;;;;;;1.52;0.90;;;;;;;22.29;58.67;100036.87;4457474;32;33450;-79
2023/09/15 07:57:14;;;;;;;0.70;0.60;;;;;;;22.81;52.84;100035.72;4458290;32;33157;-78
2023/09/15 07:59:42;;;;;;;1.17;0.57;;;;;;;22.77;53.68;100031.53;4464892;32;33653;-79
2023/09/15 08:02:13;;;;;;;1.83;1.10;;;;;;;22.51;55.80;100028.59;4473503;32;34523;-78
2023/09/15 08:04:43;;;;;;;1.00;0.75;;;;;;;22.80;55.45;100037.47;4470199;32;34412;-79
2023/09/15 08:07:13;;;;;;;1.67;0.90;;;;;;;22.72;54.36;100037.09;4473737;32;35103;-78
2023/09/15 08:09:42;;;;;;;1.03;0.80;;;;;;;22.90;53.95;100040.44;4472728;31;33477;-79
2023/09/15 08:12:11;;;;;;;1.20;0.73;;;;;;;23.17;54.94;100037.13;4479202;32;34737;-79
2023/09/15 08:14:40;;;;;;;1.42;0.90;;;;;;;23.05;55.02;100030.81;4472036;32;32904;-78
2023/09/15 08:17:09;;;;;;;1.08;0.95;;;;;;;23.00;55.54;100031.06;4471111;32;33644;-78
2023/09/15 08:19:47;;;;;;;3.30;1.30;;;;;;;22.89;55.11;100030.81;4475056;31;33601;-79
2023/09/15 08:22:17;;;;;;;1.05;0.80;;;;;;;23.13;54.32;100032.97;4467203;32;33950;-78
2023/09/15 08:24:48;;;;;;;0.98;0.80;;;;;;;23.19;53.70;100029.94;4476027;31;33200;-77
2023/09/15 08:27:17;;;;;;;0.73;0.62;;;;;;;23.29;53.24;100025.78;4470380;32;33637;-79
2023/09/15 08:29:45;;;;;;;1.00;0.68;;;;;;;23.50;51.65;100030.75;4464180;32;33349;-79
2023/09/15 08:32:15;;;;;;;2.60;0.70;;;;;;;23.51;51.90;100024.50;4468668;32;34552;-78
2023/09/15 08:34:44;;;;;;;0.65;0.43;;;;;;;23.57;51.42;100024.13;4475851;32;34494;-79
2023/09/15 08:37:13;;;;;;;1.55;0.77;;;;;;;23.58;50.13;100021.41;4470873;32;33689;-79
2023/09/15 08:39:45;;;;;;;2.10;0.90;;;;;;;23.71;49.76;100021.47;4474919;32;34376;-78
2023/09/15 08:42:17;;;;;;;1.75;0.70;;;;;;;23.79;49.61;100019.22;4475877;32;33627;-78
2023/09/15 08:44:46;;;;;;;1.27;0.95;;;;;;;23.72;50.39;100015.22;4475799;32;33690;-79
2023/09/15 08:47:15;;;;;;;1.48;0.70;;;;;;;23.69;50.40;100011.91;4481324;32;34382;-79
2023/09/15 08:49:44;;;;;;;1.58;0.90;;;;;;;23.97;50.69;100008.41;4473959;32;34510;-79
2023/09/15 08:52:15;;;;;;;1.60;0.90;;;;;;;23.93;51.02;100009.56;4474802;32;33272;-79
2023/09/15 08:54:46;;;;;;;3.65;0.95;;;;;;;24.05;51.64;100011.41;4475379;32;34808;-78
2023/09/15 08:57:16;;;;;;;1.60;0.80;;;;;;;23.97;50.81;100017.22;4480765;32;33102;-79
2023/09/15 08:59:45;;;;;;;0.75;0.55;;;;;;;24.26;49.83;100018.00;4475697;32;33683;-79
2023/09/15 09:02:14;;;;;;;0.93;0.50;;;;;;;24.36;49.32;100017.41;4475609;31;34603;-79
2023/09/15 09:04:43;;;;;;;2.08;0.93;;;;;;;24.37;48.12;100017.28;4467790;32;34325;-79
2023/09/15 09:07:13;;;;;;;1.75;1.00;;;;;;;24.30;49.00;100029.22;4471154;32;34184;-78
2023/09/15 09:09:44;;;;;;;0.75;0.50;;;;;;;24.67;48.73;100025.06;4468799;32;32901;-78
2023/09/15 09:12:13;;;;;;;;;;;;;;;24.48;47.61;100019.28;4465535;32;33755;-79
2023/09/15 09:14:42;;;;;;;0.85;0.65;;;;;;;24.94;45.55;100015.38;4475177;32;33839;-78
2023/09/15 09:17:13;;;;;;;1.85;0.80;;;;;;;24.81;47.95;100023.28;4473847;32;33307;-78
2023/09/15 09:19:43;;;;;;;4.53;1.52;;;;;;;24.80;46.62;100021.59;4476198;32;33893;-78
2023/09/15 09:22:12;;;;;;;1.98;1.00;;;;;;;24.74;47.33;100022.84;4472553;32;33708;-78
2023/09/15 09:24:41;;;;;;;2.37;1.25;;;;;;;24.71;46.49;100017.75;4472206;32;33898;-78
2023/09/15 09:27:11;;;;;;;2.25;1.12;;;;;;;24.96;45.44;100024.91;4470323;32;33381;-78
2023/09/15 09:29:41;;;;;;;1.87;1.08;;;;;;;24.85;45.20;100024.78;4470898;31;33252;-78
2023/09/15 09:32:13;;;;;;;1.87;0.88;;;;;;;24.91;45.89;100024.34;4474597;32;35839;-78
2023/09/15 09:34:42;;;;;;;1.35;0.70;;;;;;;24.95;45.91;100014.41;4467722;32;34062;-78
2023/09/15 09:37:16;;;;;;;1.52;0.98;;;;;;;24.88;42.67;100022.75;4465548;32;34004;-79
2023/09/15 09:39:45;;;;;;;1.45;1.08;;;;;;;25.01;43.51;100020.16;4471142;32;32466;-79
2023/09/15 09:42:15;;;;;;;1.73;0.93;;;;;;;24.88;42.13;100016.59;4476571;32;33622;-79
2023/09/15 09:44:44;;;;;;;0.90;0.77;;;;;;;25.13;41.71;100008.69;4470996;32;33713;-79
2023/09/15 09:47:13;;;;;;;1.62;0.90;;;;;;;25.10;43.68;100005.38;4471921;32;33156;-79
2023/09/15 09:49:42;;;;;;;0.93;0.62;;;;;;;24.64;43.82;100011.97;4470137;32;33570;-79
2023/09/15 09:52:13;;;;;;;1.95;0.60;;;;;;;24.92;43.07;100018.09;4477710;32;33792;-79
2023/09/15 09:54:41;;;;;;;;;;;;;;;24.92;43.27;100023.41;4475902;32;33951;-78
2023/09/15 09:57:10;;;;;;;1.10;0.62;;;;;;;25.24;43.77;100015.09;4466354;32;33207;-79
2023/09/15 09:59:40;;;;;;;2.03;0.90;;;;;;;25.15;44.26;100015.69;4472982;32;33420;-79
2023/09/15 10:02:09;;;;;;;1.67;1.10;;;;;;;25.50;42.90;100022.09;4472660;32;34515;-79
2023/09/15 10:04:38;;;;;;;1.23;0.65;;;;;;;25.00;43.66;100015.78;4480152;32;34408;-80
2023/09/15 10:07:08;;;;;;;1.37;0.85;;;;;;;25.26;41.71;100019.34;4474248;32;33590;-79
2023/09/15 10:09:37;;;;;;;1.20;0.52;;;;;;;25.33;41.51;100019.75;4474790;32;33581;-79
2023/09/15 10:12:06;;;;;;;0.70;0.55;;;;;;;25.34;42.31;100013.47;4473448;32;34102;-79
2023/09/15 10:14:35;;;;;;;2.15;0.90;;;;;;;25.69;41.45;100007.50;4480048;32;33450;-79
2023/09/15 10:17:05;;;;;;;1.87;0.93;;;;;;;25.83;41.55;100015.34;4474503;32;34316;-79
2023/09/15 10:19:34;;;;;;;1.65;0.85;;;;;;;25.83;41.63;100012.69;4473847;32;34469;-79
2023/09/15 10:22:04;;;;;;;2.45;0.85;;;;;;;25.80;41.37;100009.41;4466837;32;32680;-79
2023/09/15 10:24:33;;;;;;;0.90;0.70;;;;;;;25.74;41.52;100013.34;4473211;31;34943;-80
2023/09/15 10:27:03;;;;;;;1.65;1.00;;;;;;;25.39;42.25;100011.34;4481209;31;34001;-80
2023/09/15 10:29:32;;;;;;;1.58;0.90;;;;;;;25.43;42.41;100015.50;4474516;32;34291;-78
2023/09/15 10:32:05;;;;;;;0.55;0.47;;;;;;;25.71;41.57;100003.78;4475902;31;33982;-78
2023/09/15 10:34:35;;;;;;;1.35;0.70;;;;;;;25.63;42.02;100010.59;4470272;31;33749;-80
2023/09/15 10:37:04;;;;;;;1.87;0.77;;;;;;;25.72;42.18;100001.97;4474382;32;34296;-80
2023/09/15 10:39:37;;;;;;;1.35;0.77;;;;;;;25.61;43.03;100002.72;4472973;32;34523;-80
2023/09/15 10:42:07;;;;;;;1.70;0.95;;;;;;;25.70;42.41;100006.53;4474226;32;33127;-80
2023/09/15 10:44:36;;;;;;;1.25;0.80;;;;;;;25.58;43.71;100002.09;4474324;32;34389;-80
2023/09/15 10:47:16;;;;;;;0.88;0.60;;;;;;;25.82;42.54;100000.34;4472530;32;33938;-79
2023/09/15 10:49:50;;;;;;;2.15;0.80;;;;;;;25.81;42.94;99998.66;4469270;32;34219;-80
2023/09/15 10:52:19;;;;;;;1.23;0.68;;;;;;;25.80;42.45;99996.09;4470609;32;34064;-78
2023/09/15 10:54:49;;;;;;;1.33;0.68;;;;;;;25.74;42.52;100003.56;4473735;32;33801;-81
2023/09/15 10:57:18;;;;;;;1.77;0.80;;;;;;;26.14;41.82;100002.50;4473158;32;32793;-79
2023/09/15 10:59:47;;;;;;;0.52;0.50;;;;;;;26.34;40.60;99999.25;4473719;31;33511;-80
2023/09/15 11:02:17;;;;;;;1.42;0.70;;;;;;;26.39;41.61;99989.12;4473527;32;34637;-80
2023/09/15 11:04:47;;;;;;;1.15;0.80;;;;;;;26.31;42.14;99996.81;4467552;32;34008;-80
2023/09/15 11:07:17;;;;;;;1.30;0.77;;;;;;;26.53;41.42;99997.88;4469641;32;33300;-80
2023/09/15 11:09:46;;;;;;;1.08;0.68;;;;;;;26.78;41.18;100000.41;4468769;32;33464;-79
2023/09/15 11:12:15;;;;;;;1.55;0.85;;;;;;;26.55;42.68;99995.97;4478444;32;33618;-80
2023/09/15 11:14:43;;;;;;;1.40;0.60;;;;;;;27.05;41.50;99991.28;4461936;32;34669;-80
2023/09/15 11:17:12;;;;;;;1.12;0.77;;;;;;;27.15;40.84;99994.91;4471823;32;31755;-80
2023/09/15 11:19:43;;;;;;;1.10;0.60;;;;;;;27.37;40.17;99996.78;4473865;32;33419;-80
2023/09/15 11:22:12;;;;;;;;;;;;;;;27.50;40.23;99991.38;4478287;32;33094;-79
2023/09/15 11:24:41;;;;;;;2.10;0.90;;;;;;;27.02;39.46;99996.84;4478450;32;34880;-80
2023/09/15 11:27:09;;;;;;;1.87;0.82;;;;;;;27.22;39.79;99993.50;4472287;32;33374;-80
2023/09/15 11:29:38;;;;;;;2.05;0.68;;;;;;;27.36;39.49;99989.78;4470968;32;34584;-80
2023/09/15 11:32:09;;;;;;;0.90;0.70;;;;;;;27.43;38.34;99992.81;4470594;32;35095;-79
2023/09/15 11:34:39;;;;;;;0.98;0.30;;;;;;;27.40;39.15;99991.25;4476326;32;33930;-80
2023/09/15 11:37:09;;;;;;;1.20;0.60;;;;;;;27.50;38.36;99983.38;4470473;32;34123;-78
2023/09/15 11:39:38;;;;;;;1.17;0.82;;;;;;;27.47;37.49;99980.09;4467726;32;33800;-80
2023/09/15 11:42:12;;;;;;;1.85;0.65;;;;;;;27.66;37.28;99966.97;4468472;32;34754;-80
2023/09/15 11:44:43;;;;;;;0.32;0.32;;;;;;;27.81;36.64;99972.91;4472629;32;33906;-78